sensor_id;sensor_type;location;lat;lon;timestamp;pressure;altitude;pressure_sealevel;temperature;humidity
41886;BME280;27567;43.084;25.616;2023-05-20T00:02:40;98570.22;;;11.45;100.00
41886;BME280;27567;43.084;25.616;2023-05-20T00:05:24;98563.59;;;11.41;100.00
41886;BME280;27567;43.084;25.616;2023-05-20T00:08:08;98567.91;;;11.28;100.00
41886;BME280;27567;43.084;25.616;2023-05-20T00:10:54;98559.69;;;11.43;100.00
41886;BME280;27567;43.084;25.616;2023-05-20T00:13:38;98557.59;;;11.32;100.00
41886;BME280;27567;43.084;25.616;2023-05-20T00:16:22;98560.25;;;11.25;100.00
41886;BME280;27567;43.084;25.616;2023-05-20T00:19:06;98560.44;;;11.24;100.00
41886;BME280;27567;43.084;25.616;2023-05-20T00:21:50;98555.25;;;11.16;100.00
41886;BME280;27567;43.084;25.616;2023-05-20T00:24:34;98567.03;;;11.15;100.00
41886;BME280;27567;43.084;25.616;2023-05-20T00:27:18;98555.84;;;11.11;100.00
41886;BME280;27567;43.084;25.616;2023-05-20T00:30:02;98562.91;;;11.19;100.00
41886;BME280;27567;43.084;25.616;2023-05-20T00:32:47;98552.06;;;11.40;100.00
41886;BME280;27567;43.084;25.616;2023-05-20T00:35:30;98554.06;;;11.32;100.00
41886;BME280;27567;43.084;25.616;2023-05-20T00:38:14;98550.16;;;11.34;100.00
41886;BME280;27567;43.084;25.616;2023-05-20T00:40:58;98557.34;;;11.27;100.00
41886;BME280;27567;43.084;25.616;2023-05-20T00:43:43;98547.88;;;11.31;100.00
41886;BME280;27567;43.084;25.616;2023-05-20T00:46:27;98550.34;;;11.26;100.00
41886;BME280;27567;43.084;25.616;2023-05-20T00:49:12;98552.19;;;11.25;100.00
41886;BME280;27567;43.084;25.616;2023-05-20T00:51:55;98554.03;;;11.25;100.00
41886;BME280;27567;43.084;25.616;2023-05-20T00:54:40;98542.66;;;11.16;100.00
41886;BME280;27567;43.084;25.616;2023-05-20T00:57:24;98549.91;;;11.22;100.00
41886;BME280;27567;43.084;25.616;2023-05-20T01:00:09;98541.88;;;11.22;100.00
41886;BME280;27567;43.084;25.616;2023-05-20T01:02:54;98536.03;;;11.12;100.00
41886;BME280;27567;43.084;25.616;2023-05-20T01:05:39;98544.53;;;11.16;100.00
41886;BME280;27567;43.084;25.616;2023-05-20T01:08:24;98546.34;;;11.08;100.00
41886;BME280;27567;43.084;25.616;2023-05-20T01:11:27;98543.44;;;11.03;100.00
41886;BME280;27567;43.084;25.616;2023-05-20T01:14:13;98528.94;;;10.91;100.00
41886;BME280;27567;43.084;25.616;2023-05-20T01:17:01;98529.34;;;10.88;100.00
41886;BME280;27567;43.084;25.616;2023-05-20T01:19:53;98523.72;;;10.82;100.00
41886;BME280;27567;43.084;25.616;2023-05-20T01:23:05;98528.41;;;10.67;100.00
41886;BME280;27567;43.084;25.616;2023-05-20T01:25:49;98533.56;;;10.68;100.00
41886;BME280;27567;43.084;25.616;2023-05-20T01:28:35;98534.81;;;10.73;100.00
41886;BME280;27567;43.084;25.616;2023-05-20T01:31:23;98531.88;;;10.61;100.00
41886;BME280;27567;43.084;25.616;2023-05-20T01:34:08;98531.44;;;10.57;100.00
41886;BME280;27567;43.084;25.616;2023-05-20T01:36:53;98524.16;;;10.44;100.00
41886;BME280;27567;43.084;25.616;2023-05-20T01:39:38;98531.28;;;10.37;100.00
41886;BME280;27567;43.084;25.616;2023-05-20T01:42:27;98524.63;;;10.33;100.00
41886;BME280;27567;43.084;25.616;2023-05-20T01:45:12;98519.59;;;10.16;100.00
41886;BME280;27567;43.084;25.616;2023-05-20T01:47:55;98517.34;;;10.20;100.00
41886;BME280;27567;43.084;25.616;2023-05-20T01:50:40;98517.59;;;10.25;100.00
41886;BME280;27567;43.084;25.616;2023-05-20T01:53:24;98520.47;;;10.02;100.00
41886;BME280;27567;43.084;25.616;2023-05-20T01:56:08;98526.69;;;10.02;100.00
41886;BME280;27567;43.084;25.616;2023-05-20T01:58:52;98518.50;;;10.11;100.00
41886;BME280;27567;43.084;25.616;2023-05-20T02:01:36;98524.97;;;10.23;100.00
41886;BME280;27567;43.084;25.616;2023-05-20T02:04:20;98520.44;;;10.23;100.00
41886;BME280;27567;43.084;25.616;2023-05-20T02:07:05;98517.09;;;10.15;100.00
41886;BME280;27567;43.084;25.616;2023-05-20T02:09:49;98518.56;;;10.17;100.00
41886;BME280;27567;43.084;25.616;2023-05-20T02:12:33;98528.91;;;10.20;100.00
41886;BME280;27567;43.084;25.616;2023-05-20T02:15:17;98519.13;;;10.13;100.00
41886;BME280;27567;43.084;25.616;2023-05-20T02:18:01;98524.56;;;10.19;100.00
41886;BME280;27567;43.084;25.616;2023-05-20T02:20:45;98517.19;;;10.28;100.00
41886;BME280;27567;43.084;25.616;2023-05-20T02:23:30;98515.16;;;10.30;100.00
41886;BME280;27567;43.084;25.616;2023-05-20T02:26:14;98504.44;;;10.30;100.00
41886;BME280;27567;43.084;25.616;2023-05-20T02:28:59;98502.94;;;10.28;100.00
41886;BME280;27567;43.084;25.616;2023-05-20T02:31:43;98497.38;;;10.22;100.00
41886;BME280;27567;43.084;25.616;2023-05-20T02:34:27;98502.53;;;10.24;100.00
41886;BME280;27567;43.084;25.616;2023-05-20T02:37:12;98501.13;;;10.28;100.00
41886;BME280;27567;43.084;25.616;2023-05-20T02:39:56;98507.69;;;10.26;100.00
41886;BME280;27567;43.084;25.616;2023-05-20T02:42:40;98504.19;;;10.25;100.00
41886;BME280;27567;43.084;25.616;2023-05-20T02:45:24;98505.34;;;10.16;100.00
41886;BME280;27567;43.084;25.616;2023-05-20T02:48:08;98503.91;;;10.13;100.00
41886;BME280;27567;43.084;25.616;2023-05-20T02:50:52;98505.44;;;10.01;100.00
41886;BME280;27567;43.084;25.616;2023-05-20T02:53:36;98515.59;;;10.05;100.00
41886;BME280;27567;43.084;25.616;2023-05-20T02:56:20;98522.34;;;10.01;100.00
41886;BME280;27567;43.084;25.616;2023-05-20T02:59:04;98518.34;;;10.19;100.00
41886;BME280;27567;43.084;25.616;2023-05-20T03:01:49;98523.06;;;10.17;100.00
41886;BME280;27567;43.084;25.616;2023-05-20T03:04:33;98528.81;;;10.14;100.00
41886;BME280;27567;43.084;25.616;2023-05-20T03:07:21;98535.03;;;10.14;100.00
41886;BME280;27567;43.084;25.616;2023-05-20T03:10:06;98527.16;;;10.13;100.00
41886;BME280;27567;43.084;25.616;2023-05-20T03:12:50;98529.41;;;10.09;100.00
41886;BME280;27567;43.084;25.616;2023-05-20T03:15:34;98526.97;;;10.14;100.00
41886;BME280;27567;43.084;25.616;2023-05-20T03:18:19;98528.09;;;10.27;100.00
41886;BME280;27567;43.084;25.616;2023-05-20T03:21:03;98532.81;;;10.25;100.00
41886;BME280;27567;43.084;25.616;2023-05-20T03:23:47;98543.06;;;10.14;100.00
41886;BME280;27567;43.084;25.616;2023-05-20T03:26:31;98547.56;;;10.14;100.00
41886;BME280;27567;43.084;25.616;2023-05-20T03:29:16;98548.16;;;10.09;100.00
41886;BME280;27567;43.084;25.616;2023-05-20T03:32:00;98547.81;;;10.19;100.00
41886;BME280;27567;43.084;25.616;2023-05-20T03:34:45;98547.72;;;10.05;100.00
41886;BME280;27567;43.084;25.616;2023-05-20T03:37:29;98544.03;;;10.06;100.00
41886;BME280;27567;43.084;25.616;2023-05-20T03:40:13;98539.06;;;10.03;100.00
41886;BME280;27567;43.084;25.616;2023-05-20T03:42:57;98536.81;;;10.07;100.00
41886;BME280;27567;43.084;25.616;2023-05-20T03:45:41;98543.69;;;10.16;100.00
41886;BME280;27567;43.084;25.616;2023-05-20T03:48:24;98541.84;;;10.17;100.00
41886;BME280;27567;43.084;25.616;2023-05-20T03:51:09;98539.78;;;10.19;100.00
41886;BME280;27567;43.084;25.616;2023-05-20T03:53:53;98551.47;;;10.11;100.00
41886;BME280;27567;43.084;25.616;2023-05-20T03:56:36;98540.00;;;10.17;100.00
41886;BME280;27567;43.084;25.616;2023-05-20T03:59:20;98538.75;;;10.20;100.00
41886;BME280;27567;43.084;25.616;2023-05-20T04:02:05;98541.50;;;10.27;100.00
41886;BME280;27567;43.084;25.616;2023-05-20T04:04:49;98539.50;;;10.35;100.00
41886;BME280;27567;43.084;25.616;2023-05-20T04:07:35;98544.94;;;10.42;100.00
41886;BME280;27567;43.084;25.616;2023-05-20T04:10:20;98542.69;;;10.46;100.00
41886;BME280;27567;43.084;25.616;2023-05-20T04:13:05;98545.16;;;10.47;100.00
41886;BME280;27567;43.084;25.616;2023-05-20T04:15:48;98541.75;;;10.60;100.00
41886;BME280;27567;43.084;25.616;2023-05-20T04:18:34;98553.31;;;10.61;100.00
41886;BME280;27567;43.084;25.616;2023-05-20T04:21:22;98556.97;;;10.53;100.00
41886;BME280;27567;43.084;25.616;2023-05-20T04:24:05;98560.63;;;10.74;100.00
41886;BME280;27567;43.084;25.616;2023-05-20T04:26:50;98552.44;;;10.89;100.00
41886;BME280;27567;43.084;25.616;2023-05-20T04:29:34;98538.84;;;10.97;100.00
41886;BME280;27567;43.084;25.616;2023-05-20T04:32:18;98541.75;;;10.95;100.00
41886;BME280;27567;43.084;25.616;2023-05-20T04:35:03;98538.25;;;10.95;100.00
41886;BME280;27567;43.084;25.616;2023-05-20T04:37:51;98547.53;;;10.99;100.00
41886;BME280;27567;43.084;25.616;2023-05-20T04:40:37;98545.31;;;11.09;100.00
41886;BME280;27567;43.084;25.616;2023-05-20T04:43:21;98554.19;;;11.10;100.00
41886;BME280;27567;43.084;25.616;2023-05-20T04:46:05;98556.81;;;10.96;100.00
41886;BME280;27567;43.084;25.616;2023-05-20T04:48:49;98558.00;;;10.87;100.00
41886;BME280;27567;43.084;25.616;2023-05-20T04:51:33;98555.41;;;11.07;100.00
41886;BME280;27567;43.084;25.616;2023-05-20T04:54:17;98562.25;;;11.65;100.00
41886;BME280;27567;43.084;25.616;2023-05-20T04:57:03;98564.38;;;12.03;100.00
41886;BME280;27567;43.084;25.616;2023-05-20T04:59:47;98547.81;;;12.60;100.00
41886;BME280;27567;43.084;25.616;2023-05-20T05:02:31;98539.69;;;13.40;100.00
41886;BME280;27567;43.084;25.616;2023-05-20T05:05:18;98532.31;;;13.99;100.00
41886;BME280;27567;43.084;25.616;2023-05-20T05:08:02;98528.78;;;14.24;100.00
41886;BME280;27567;43.084;25.616;2023-05-20T05:10:47;98529.97;;;14.03;100.00
41886;BME280;27567;43.084;25.616;2023-05-20T05:13:31;98537.69;;;13.99;100.00
41886;BME280;27567;43.084;25.616;2023-05-20T05:16:15;98540.63;;;13.91;100.00
41886;BME280;27567;43.084;25.616;2023-05-20T05:18:59;98546.72;;;13.47;100.00
41886;BME280;27567;43.084;25.616;2023-05-20T05:21:43;98549.00;;;13.37;100.00
41886;BME280;27567;43.084;25.616;2023-05-20T05:24:27;98546.56;;;13.29;100.00
41886;BME280;27567;43.084;25.616;2023-05-20T05:27:11;98553.47;;;13.18;100.00
41886;BME280;27567;43.084;25.616;2023-05-20T05:29:55;98550.88;;;13.36;100.00
41886;BME280;27567;43.084;25.616;2023-05-20T05:32:39;98551.72;;;14.08;100.00
41886;BME280;27567;43.084;25.616;2023-05-20T05:35:23;98548.84;;;14.79;100.00
41886;BME280;27567;43.084;25.616;2023-05-20T05:38:07;98547.41;;;15.13;100.00
41886;BME280;27567;43.084;25.616;2023-05-20T05:40:52;98541.34;;;15.18;100.00
41886;BME280;27567;43.084;25.616;2023-05-20T05:43:36;98541.41;;;15.60;100.00
41886;BME280;27567;43.084;25.616;2023-05-20T05:46:20;98533.59;;;16.61;100.00
41886;BME280;27567;43.084;25.616;2023-05-20T05:49:04;98547.22;;;17.02;100.00
41886;BME280;27567;43.084;25.616;2023-05-20T05:51:49;98564.06;;;17.04;100.00
41886;BME280;27567;43.084;25.616;2023-05-20T05:54:33;98552.41;;;16.67;100.00
41886;BME280;27567;43.084;25.616;2023-05-20T05:57:17;98557.13;;;16.25;100.00
41886;BME280;27567;43.084;25.616;2023-05-20T06:00:04;98558.13;;;16.00;100.00
41886;BME280;27567;43.084;25.616;2023-05-20T06:02:48;98561.22;;;15.85;100.00
41886;BME280;27567;43.084;25.616;2023-05-20T06:05:32;98556.16;;;15.76;100.00
41886;BME280;27567;43.084;25.616;2023-05-20T06:08:16;98579.22;;;16.21;100.00
41886;BME280;27567;43.084;25.616;2023-05-20T06:11:00;98583.28;;;17.43;100.00
41886;BME280;27567;43.084;25.616;2023-05-20T06:13:44;98579.16;;;18.44;100.00
41886;BME280;27567;43.084;25.616;2023-05-20T06:16:28;98583.66;;;18.22;100.00
41886;BME280;27567;43.084;25.616;2023-05-20T06:19:12;98583.31;;;18.18;100.00
41886;BME280;27567;43.084;25.616;2023-05-20T06:21:56;98577.16;;;18.23;100.00
41886;BME280;27567;43.084;25.616;2023-05-20T06:24:43;98571.50;;;18.58;100.00
41886;BME280;27567;43.084;25.616;2023-05-20T06:27:27;98574.91;;;18.71;100.00
41886;BME280;27567;43.084;25.616;2023-05-20T06:30:11;98582.34;;;18.58;100.00
41886;BME280;27567;43.084;25.616;2023-05-20T06:32:55;98580.56;;;19.03;100.00
41886;BME280;27567;43.084;25.616;2023-05-20T06:35:39;98570.94;;;18.78;100.00
41886;BME280;27567;43.084;25.616;2023-05-20T06:38:23;98580.94;;;18.56;100.00
41886;BME280;27567;43.084;25.616;2023-05-20T06:41:07;98584.31;;;18.12;100.00
41886;BME280;27567;43.084;25.616;2023-05-20T06:43:51;98582.16;;;17.27;100.00
41886;BME280;27567;43.084;25.616;2023-05-20T06:46:52;98582.44;;;17.02;100.00
41886;BME280;27567;43.084;25.616;2023-05-20T06:49:43;98574.50;;;17.12;100.00
41886;BME280;27567;43.084;25.616;2023-05-20T06:52:53;98582.78;;;16.58;100.00
41886;BME280;27567;43.084;25.616;2023-05-20T06:55:37;98574.44;;;17.07;100.00
41886;BME280;27567;43.084;25.616;2023-05-20T06:58:22;98572.94;;;17.28;100.00
41886;BME280;27567;43.084;25.616;2023-05-20T07:01:06;98569.25;;;17.46;100.00
41886;BME280;27567;43.084;25.616;2023-05-20T07:03:50;98574.19;;;16.85;100.00
41886;BME280;27567;43.084;25.616;2023-05-20T07:06:34;98573.38;;;16.96;100.00
41886;BME280;27567;43.084;25.616;2023-05-20T07:09:19;98579.94;;;16.64;100.00
41886;BME280;27567;43.084;25.616;2023-05-20T07:12:03;98572.88;;;16.75;100.00
41886;BME280;27567;43.084;25.616;2023-05-20T07:14:47;98577.13;;;17.19;100.00
41886;BME280;27567;43.084;25.616;2023-05-20T07:17:31;98568.09;;;17.42;100.00
41886;BME280;27567;43.084;25.616;2023-05-20T07:20:15;98574.88;;;17.16;100.00
41886;BME280;27567;43.084;25.616;2023-05-20T07:22:59;98570.59;;;17.32;100.00
41886;BME280;27567;43.084;25.616;2023-05-20T07:25:45;98566.66;;;17.51;100.00
41886;BME280;27567;43.084;25.616;2023-05-20T07:28:29;98569.06;;;17.65;100.00
41886;BME280;27567;43.084;25.616;2023-05-20T07:31:13;98562.25;;;18.08;100.00
41886;BME280;27567;43.084;25.616;2023-05-20T07:33:57;98562.84;;;18.44;100.00
41886;BME280;27567;43.084;25.616;2023-05-20T07:36:41;98577.28;;;18.84;100.00
41886;BME280;27567;43.084;25.616;2023-05-20T07:39:26;98584.69;;;19.06;100.00
41886;BME280;27567;43.084;25.616;2023-05-20T07:42:10;98589.31;;;19.77;100.00
41886;BME280;27567;43.084;25.616;2023-05-20T07:44:54;98599.69;;;19.80;100.00
41886;BME280;27567;43.084;25.616;2023-05-20T07:47:38;98608.00;;;20.18;100.00
41886;BME280;27567;43.084;25.616;2023-05-20T07:50:22;98606.94;;;20.24;100.00
41886;BME280;27567;43.084;25.616;2023-05-20T07:53:06;98606.91;;;19.92;100.00
41886;BME280;27567;43.084;25.616;2023-05-20T07:55:50;98606.50;;;19.56;100.00
41886;BME280;27567;43.084;25.616;2023-05-20T07:58:34;98610.47;;;19.26;100.00
41886;BME280;27567;43.084;25.616;2023-05-20T08:01:18;98601.06;;;19.33;100.00
41886;BME280;27567;43.084;25.616;2023-05-20T08:04:02;98596.00;;;19.42;100.00
41886;BME280;27567;43.084;25.616;2023-05-20T08:06:47;98596.78;;;20.15;100.00
41886;BME280;27567;43.084;25.616;2023-05-20T08:09:33;98600.25;;;20.37;100.00
41886;BME280;27567;43.084;25.616;2023-05-20T08:12:17;98599.31;;;20.59;100.00
41886;BME280;27567;43.084;25.616;2023-05-20T08:15:03;98586.88;;;20.68;100.00
41886;BME280;27567;43.084;25.616;2023-05-20T08:17:47;98599.03;;;20.23;100.00
41886;BME280;27567;43.084;25.616;2023-05-20T08:20:31;98592.44;;;20.84;100.00
41886;BME280;27567;43.084;25.616;2023-05-20T08:23:15;98598.28;;;20.65;100.00
41886;BME280;27567;43.084;25.616;2023-05-20T08:26:00;98593.78;;;20.81;100.00
41886;BME280;27567;43.084;25.616;2023-05-20T08:28:47;98593.34;;;21.00;100.00
41886;BME280;27567;43.084;25.616;2023-05-20T08:31:31;98582.16;;;21.55;100.00
41886;BME280;27567;43.084;25.616;2023-05-20T08:34:15;98580.13;;;22.14;100.00
41886;BME280;27567;43.084;25.616;2023-05-20T08:36:59;98586.41;;;22.25;100.00
41886;BME280;27567;43.084;25.616;2023-05-20T08:39:43;98589.31;;;21.61;100.00
41886;BME280;27567;43.084;25.616;2023-05-20T08:42:29;98593.63;;;20.98;100.00
41886;BME280;27567;43.084;25.616;2023-05-20T08:45:16;98583.34;;;20.73;100.00
41886;BME280;27567;43.084;25.616;2023-05-20T08:48:01;98585.88;;;20.42;100.00
41886;BME280;27567;43.084;25.616;2023-05-20T08:50:49;98591.78;;;20.71;100.00
41886;BME280;27567;43.084;25.616;2023-05-20T08:53:37;98586.06;;;20.73;100.00
41886;BME280;27567;43.084;25.616;2023-05-20T08:56:21;98583.22;;;20.52;100.00
41886;BME280;27567;43.084;25.616;2023-05-20T08:59:06;98580.00;;;20.61;100.00
41886;BME280;27567;43.084;25.616;2023-05-20T09:01:50;98575.13;;;21.00;100.00
41886;BME280;27567;43.084;25.616;2023-05-20T09:04:35;98586.00;;;21.00;100.00
41886;BME280;27567;43.084;25.616;2023-05-20T09:07:28;98582.47;;;21.05;100.00
41886;BME280;27567;43.084;25.616;2023-05-20T09:10:13;98592.97;;;20.43;100.00
41886;BME280;27567;43.084;25.616;2023-05-20T09:13:01;98590.44;;;20.36;100.00
41886;BME280;27567;43.084;25.616;2023-05-20T09:15:50;98576.94;;;19.37;100.00
41886;BME280;27567;43.084;25.616;2023-05-20T09:18:37;98569.09;;;18.45;100.00
41886;BME280;27567;43.084;25.616;2023-05-20T09:21:26;98546.63;;;17.11;100.00
41886;BME280;27567;43.084;25.616;2023-05-20T09:24:11;98543.09;;;16.16;100.00
41886;BME280;27567;43.084;25.616;2023-05-20T09:26:55;98530.25;;;15.99;100.00
41886;BME280;27567;43.084;25.616;2023-05-20T09:29:40;98514.28;;;15.98;100.00
41886;BME280;27567;43.084;25.616;2023-05-20T09:32:24;98507.53;;;15.88;100.00
41886;BME280;27567;43.084;25.616;2023-05-20T09:35:15;98501.53;;;15.44;100.00
41886;BME280;27567;43.084;25.616;2023-05-20T09:37:59;98499.00;;;15.30;100.00
41886;BME280;27567;43.084;25.616;2023-05-20T09:40:44;98504.78;;;15.34;100.00
41886;BME280;27567;43.084;25.616;2023-05-20T09:43:30;98499.97;;;15.36;100.00
41886;BME280;27567;43.084;25.616;2023-05-20T09:46:15;98502.06;;;15.65;100.00
41886;BME280;27567;43.084;25.616;2023-05-20T09:49:00;98496.91;;;15.75;100.00
41886;BME280;27567;43.084;25.616;2023-05-20T09:51:47;98487.00;;;16.23;100.00
41886;BME280;27567;43.084;25.616;2023-05-20T09:54:31;98490.84;;;16.87;100.00
41886;BME280;27567;43.084;25.616;2023-05-20T09:57:16;98486.66;;;17.20;100.00
41886;BME280;27567;43.084;25.616;2023-05-20T10:00:02;98488.84;;;18.32;100.00
41886;BME280;27567;43.084;25.616;2023-05-20T10:02:51;98495.88;;;18.89;100.00
41886;BME280;27567;43.084;25.616;2023-05-20T10:05:38;98502.03;;;19.02;100.00
41886;BME280;27567;43.084;25.616;2023-05-20T10:08:28;98496.94;;;18.66;100.00
41886;BME280;27567;43.084;25.616;2023-05-20T10:11:18;98502.63;;;19.86;100.00
41886;BME280;27567;43.084;25.616;2023-05-20T10:14:08;98511.31;;;20.53;100.00
41886;BME280;27567;43.084;25.616;2023-05-20T10:19:43;98514.94;;;21.12;100.00
41886;BME280;27567;43.084;25.616;2023-05-20T10:22:29;98515.88;;;22.84;100.00
41886;BME280;27567;43.084;25.616;2023-05-20T10:25:25;98518.50;;;23.09;100.00
41886;BME280;27567;43.084;25.616;2023-05-20T10:28:09;98520.28;;;23.90;100.00
41886;BME280;27567;43.084;25.616;2023-05-20T10:30:54;98525.75;;;24.30;100.00
41886;BME280;27567;43.084;25.616;2023-05-20T10:33:43;98517.91;;;24.18;100.00
41886;BME280;27567;43.084;25.616;2023-05-20T10:36:28;98523.22;;;26.13;100.00
41886;BME280;27567;43.084;25.616;2023-05-20T10:39:14;98521.84;;;27.32;100.00
41886;BME280;27567;43.084;25.616;2023-05-20T10:42:08;98523.53;;;27.93;100.00
41886;BME280;27567;43.084;25.616;2023-05-20T10:44:53;98523.16;;;30.22;92.54
41886;BME280;27567;43.084;25.616;2023-05-20T10:47:52;98526.19;;;31.85;78.23
41886;BME280;27567;43.084;25.616;2023-05-20T10:50:39;98516.22;;;33.75;65.36
41886;BME280;27567;43.084;25.616;2023-05-20T10:53:26;98516.41;;;33.29;65.80
41886;BME280;27567;43.084;25.616;2023-05-20T10:56:20;98503.97;;;35.13;52.03
41886;BME280;27567;43.084;25.616;2023-05-20T10:59:05;98510.94;;;31.70;71.92
41886;BME280;27567;43.084;25.616;2023-05-20T11:01:49;98508.72;;;29.64;90.31
41886;BME280;27567;43.084;25.616;2023-05-20T11:04:34;98493.69;;;32.06;69.04
41886;BME280;27567;43.084;25.616;2023-05-20T11:10:10;98489.44;;;33.83;56.42
41886;BME280;27567;43.084;25.616;2023-05-20T11:12:55;98492.28;;;33.86;49.72
41886;BME280;27567;43.084;25.616;2023-05-20T11:15:41;98475.25;;;32.23;51.40
41886;BME280;27567;43.084;25.616;2023-05-20T11:18:28;98472.75;;;29.11;72.03
41886;BME280;27567;43.084;25.616;2023-05-20T11:21:15;98474.06;;;29.31;70.00
41886;BME280;27567;43.084;25.616;2023-05-20T11:23:59;98469.31;;;29.05;74.56
41886;BME280;27567;43.084;25.616;2023-05-20T11:26:43;98462.44;;;30.43;67.59
41886;BME280;27567;43.084;25.616;2023-05-20T11:29:28;98466.41;;;30.25;73.48
41886;BME280;27567;43.084;25.616;2023-05-20T11:32:14;98467.19;;;30.82;64.48
41886;BME280;27567;43.084;25.616;2023-05-20T11:34:59;98461.22;;;33.15;54.95
41886;BME280;27567;43.084;25.616;2023-05-20T11:37:43;98457.38;;;30.93;67.73
41886;BME280;27567;43.084;25.616;2023-05-20T11:40:27;98456.72;;;30.57;67.19
41886;BME280;27567;43.084;25.616;2023-05-20T11:43:13;98455.53;;;30.20;67.88
41886;BME280;27567;43.084;25.616;2023-05-20T11:45:57;98451.38;;;32.56;58.99
41886;BME280;27567;43.084;25.616;2023-05-20T11:48:51;98450.81;;;33.12;55.67
41886;BME280;27567;43.084;25.616;2023-05-20T11:51:36;98445.25;;;33.65;55.65
41886;BME280;27567;43.084;25.616;2023-05-20T11:54:21;98437.59;;;30.35;68.38
41886;BME280;27567;43.084;25.616;2023-05-20T11:57:07;98440.63;;;29.24;78.94
41886;BME280;27567;43.084;25.616;2023-05-20T11:59:51;98427.16;;;31.30;67.92
41886;BME280;27567;43.084;25.616;2023-05-20T12:02:35;98421.72;;;32.10;61.68
41886;BME280;27567;43.084;25.616;2023-05-20T12:05:20;98422.88;;;34.19;53.54
41886;BME280;27567;43.084;25.616;2023-05-20T12:08:05;98405.44;;;34.86;50.21
41886;BME280;27567;43.084;25.616;2023-05-20T12:10:48;98406.72;;;33.80;51.90
41886;BME280;27567;43.084;25.616;2023-05-20T12:13:33;98408.16;;;32.55;58.97
41886;BME280;27567;43.084;25.616;2023-05-20T12:16:17;98398.41;;;32.23;57.49
41886;BME280;27567;43.084;25.616;2023-05-20T12:19:01;98400.22;;;29.54;70.02
41886;BME280;27567;43.084;25.616;2023-05-20T12:21:45;98390.25;;;30.75;68.22
41886;BME280;27567;43.084;25.616;2023-05-20T12:24:29;98383.94;;;32.05;61.77
41886;BME280;27567;43.084;25.616;2023-05-20T12:27:13;98394.88;;;31.89;62.47
41886;BME280;27567;43.084;25.616;2023-05-20T12:29:58;98386.44;;;32.94;54.89
41886;BME280;27567;43.084;25.616;2023-05-20T12:32:43;98383.44;;;33.27;55.86
41886;BME280;27567;43.084;25.616;2023-05-20T12:35:40;98377.06;;;34.80;51.23
41886;BME280;27567;43.084;25.616;2023-05-20T12:38:25;98366.41;;;34.34;51.28
41886;BME280;27567;43.084;25.616;2023-05-20T12:41:09;98366.63;;;30.99;68.18
41886;BME280;27567;43.084;25.616;2023-05-20T12:43:53;98352.56;;;30.62;71.57
41886;BME280;27567;43.084;25.616;2023-05-20T12:46:38;98349.25;;;31.19;69.48
41886;BME280;27567;43.084;25.616;2023-05-20T12:49:22;98353.69;;;30.91;68.74
41886;BME280;27567;43.084;25.616;2023-05-20T12:52:06;98354.25;;;29.06;79.98
41886;BME280;27567;43.084;25.616;2023-05-20T12:54:50;98350.22;;;27.51;95.21
41886;BME280;27567;43.084;25.616;2023-05-20T12:57:34;98343.34;;;25.49;100.00
41886;BME280;27567;43.084;25.616;2023-05-20T13:00:18;98351.88;;;25.09;100.00
41886;BME280;27567;43.084;25.616;2023-05-20T13:03:02;98347.47;;;25.46;100.00
41886;BME280;27567;43.084;25.616;2023-05-20T13:05:46;98337.25;;;27.74;100.00
41886;BME280;27567;43.084;25.616;2023-05-20T13:08:30;98320.94;;;29.46;88.50
41886;BME280;27567;43.084;25.616;2023-05-20T13:11:14;98327.75;;;30.74;73.89
41886;BME280;27567;43.084;25.616;2023-05-20T13:13:58;98321.69;;;31.23;67.84
41886;BME280;27567;43.084;25.616;2023-05-20T13:16:43;98316.16;;;31.57;68.53
41886;BME280;27567;43.084;25.616;2023-05-20T13:19:27;98315.59;;;31.30;69.53
41886;BME280;27567;43.084;25.616;2023-05-20T13:22:11;98310.81;;;29.68;76.17
41886;BME280;27567;43.084;25.616;2023-05-20T13:24:55;98316.50;;;28.48;85.35
41886;BME280;27567;43.084;25.616;2023-05-20T13:27:39;98303.47;;;30.80;75.20
41886;BME280;27567;43.084;25.616;2023-05-20T13:30:23;98307.75;;;30.17;76.17
41886;BME280;27567;43.084;25.616;2023-05-20T13:33:07;98303.38;;;27.19;95.10
41886;BME280;27567;43.084;25.616;2023-05-20T13:35:51;98305.53;;;25.27;100.00
41886;BME280;27567;43.084;25.616;2023-05-20T13:38:35;98298.97;;;24.02;100.00
41886;BME280;27567;43.084;25.616;2023-05-20T13:41:19;98310.59;;;23.60;100.00
41886;BME280;27567;43.084;25.616;2023-05-20T13:44:03;98299.63;;;23.35;100.00
41886;BME280;27567;43.084;25.616;2023-05-20T13:46:47;98303.38;;;22.65;100.00
41886;BME280;27567;43.084;25.616;2023-05-20T13:49:31;98309.53;;;22.86;100.00
41886;BME280;27567;43.084;25.616;2023-05-20T13:52:15;98300.69;;;22.55;100.00
41886;BME280;27567;43.084;25.616;2023-05-20T13:54:59;98317.00;;;22.70;100.00
41886;BME280;27567;43.084;25.616;2023-05-20T13:57:43;98318.56;;;22.16;100.00
41886;BME280;27567;43.084;25.616;2023-05-20T14:00:27;98349.66;;;22.35;100.00
41886;BME280;27567;43.084;25.616;2023-05-20T14:03:14;98390.94;;;22.13;100.00
41886;BME280;27567;43.084;25.616;2023-05-20T14:05:59;98413.22;;;19.95;100.00
41886;BME280;27567;43.084;25.616;2023-05-20T14:08:44;98413.50;;;18.39;100.00
41886;BME280;27567;43.084;25.616;2023-05-20T14:11:38;98415.28;;;16.73;100.00
41886;BME280;27567;43.084;25.616;2023-05-20T14:14:22;98398.59;;;15.33;100.00
41886;BME280;27567;43.084;25.616;2023-05-20T14:17:06;98391.41;;;14.66;100.00
41886;BME280;27567;43.084;25.616;2023-05-20T14:19:50;98376.13;;;14.23;100.00
41886;BME280;27567;43.084;25.616;2023-05-20T14:22:37;98375.75;;;14.01;100.00